sensor_id;sensor_type;location;lat;lon;timestamp;P1;durP1;ratioP1;P2;durP2;ratioP2
37855;SDS011;23694;43.274;26.924;2023-05-29T00:01:22;28.67;;;22.23;;
37855;SDS011;23694;43.274;26.924;2023-05-29T00:03:49;28.60;;;23.40;;
37855;SDS011;23694;43.274;26.924;2023-05-29T00:06:16;27.20;;;21.33;;
37855;SDS011;23694;43.274;26.924;2023-05-29T00:08:42;32.83;;;23.20;;
37855;SDS011;23694;43.274;26.924;2023-05-29T00:11:08;26.13;;;22.17;;
37855;SDS011;23694;43.274;26.924;2023-05-29T00:13:34;29.27;;;22.63;;
37855;SDS011;23694;43.274;26.924;2023-05-29T00:16:00;29.00;;;21.83;;
37855;SDS011;23694;43.274;26.924;2023-05-29T00:18:29;26.17;;;21.67;;
37855;SDS011;23694;43.274;26.924;2023-05-29T00:20:55;30.07;;;22.10;;
37855;SDS011;23694;43.274;26.924;2023-05-29T00:23:21;27.67;;;21.50;;
37855;SDS011;23694;43.274;26.924;2023-05-29T00:25:47;27.20;;;22.20;;
37855;SDS011;23694;43.274;26.924;2023-05-29T00:28:13;27.17;;;22.13;;
37855;SDS011;23694;43.274;26.924;2023-05-29T00:30:39;28.40;;;22.33;;
37855;SDS011;23694;43.274;26.924;2023-05-29T00:33:05;27.93;;;22.67;;
37855;SDS011;23694;43.274;26.924;2023-05-29T00:35:32;27.03;;;21.57;;
37855;SDS011;23694;43.274;26.924;2023-05-29T00:37:58;34.37;;;22.97;;
37855;SDS011;23694;43.274;26.924;2023-05-29T00:40:25;28.27;;;21.57;;
37855;SDS011;23694;43.274;26.924;2023-05-29T00:42:51;27.83;;;21.47;;
37855;SDS011;23694;43.274;26.924;2023-05-29T00:45:18;28.83;;;22.03;;
37855;SDS011;23694;43.274;26.924;2023-05-29T00:47:44;27.77;;;22.03;;
37855;SDS011;23694;43.274;26.924;2023-05-29T00:50:11;29.33;;;22.37;;
37855;SDS011;23694;43.274;26.924;2023-05-29T00:52:39;30.10;;;23.07;;
37855;SDS011;23694;43.274;26.924;2023-05-29T00:55:07;26.43;;;21.67;;
37855;SDS011;23694;43.274;26.924;2023-05-29T00:57:34;28.87;;;23.20;;
37855;SDS011;23694;43.274;26.924;2023-05-29T01:00:04;31.73;;;23.27;;
37855;SDS011;23694;43.274;26.924;2023-05-29T01:02:36;28.10;;;21.67;;
37855;SDS011;23694;43.274;26.924;2023-05-29T01:05:04;26.97;;;21.83;;
37855;SDS011;23694;43.274;26.924;2023-05-29T01:07:31;29.67;;;23.03;;
37855;SDS011;23694;43.274;26.924;2023-05-29T01:09:58;28.43;;;22.07;;
37855;SDS011;23694;43.274;26.924;2023-05-29T01:27:54;25.70;;;20.87;;
37855;SDS011;23694;43.274;26.924;2023-05-29T01:30:27;29.45;;;22.05;;
37855;SDS011;23694;43.274;26.924;2023-05-29T01:32:54;25.97;;;21.47;;
37855;SDS011;23694;43.274;26.924;2023-05-29T01:35:20;28.07;;;21.10;;
37855;SDS011;23694;43.274;26.924;2023-05-29T01:37:47;24.63;;;21.30;;
37855;SDS011;23694;43.274;26.924;2023-05-29T01:40:13;27.53;;;22.23;;
37855;SDS011;23694;43.274;26.924;2023-05-29T01:42:39;28.27;;;22.77;;
37855;SDS011;23694;43.274;26.924;2023-05-29T01:45:06;28.40;;;22.70;;
37855;SDS011;23694;43.274;26.924;2023-05-29T01:47:33;27.53;;;22.23;;
37855;SDS011;23694;43.274;26.924;2023-05-29T01:50:00;28.13;;;23.30;;
37855;SDS011;23694;43.274;26.924;2023-05-29T01:52:26;30.40;;;23.93;;
37855;SDS011;23694;43.274;26.924;2023-05-29T01:54:52;29.03;;;23.53;;
37855;SDS011;23694;43.274;26.924;2023-05-29T01:57:18;29.87;;;24.07;;
37855;SDS011;23694;43.274;26.924;2023-05-29T01:59:46;31.43;;;23.53;;
37855;SDS011;23694;43.274;26.924;2023-05-29T02:02:12;33.03;;;25.57;;
37855;SDS011;23694;43.274;26.924;2023-05-29T02:04:38;28.90;;;23.40;;
37855;SDS011;23694;43.274;26.924;2023-05-29T02:07:04;33.40;;;24.27;;
37855;SDS011;23694;43.274;26.924;2023-05-29T02:09:32;31.90;;;25.33;;
37855;SDS011;23694;43.274;26.924;2023-05-29T02:11:59;31.00;;;24.77;;
37855;SDS011;23694;43.274;26.924;2023-05-29T02:14:26;35.00;;;26.33;;
37855;SDS011;23694;43.274;26.924;2023-05-29T02:16:52;32.77;;;24.97;;
37855;SDS011;23694;43.274;26.924;2023-05-29T02:19:18;31.00;;;24.23;;
37855;SDS011;23694;43.274;26.924;2023-05-29T02:21:46;32.07;;;24.43;;
37855;SDS011;23694;43.274;26.924;2023-05-29T02:24:12;35.60;;;26.03;;
37855;SDS011;23694;43.274;26.924;2023-05-29T02:26:38;31.63;;;24.77;;
37855;SDS011;23694;43.274;26.924;2023-05-29T02:29:05;33.87;;;26.73;;
37855;SDS011;23694;43.274;26.924;2023-05-29T02:31:32;30.77;;;24.50;;
37855;SDS011;23694;43.274;26.924;2023-05-29T02:33:58;88.83;;;63.07;;
37855;SDS011;23694;43.274;26.924;2023-05-29T02:36:24;70.00;;;52.40;;
37855;SDS011;23694;43.274;26.924;2023-05-29T02:38:51;59.13;;;42.60;;
37855;SDS011;23694;43.274;26.924;2023-05-29T02:41:17;51.03;;;34.57;;
37855;SDS011;23694;43.274;26.924;2023-05-29T02:43:43;40.60;;;29.07;;
37855;SDS011;23694;43.274;26.924;2023-05-29T02:46:09;43.17;;;31.87;;
37855;SDS011;23694;43.274;26.924;2023-05-29T02:48:35;34.03;;;24.90;;
37855;SDS011;23694;43.274;26.924;2023-05-29T02:51:01;33.20;;;24.13;;
37855;SDS011;23694;43.274;26.924;2023-05-29T02:53:27;32.20;;;23.53;;
37855;SDS011;23694;43.274;26.924;2023-05-29T02:55:53;31.77;;;23.97;;
37855;SDS011;23694;43.274;26.924;2023-05-29T02:58:20;28.60;;;21.97;;
37855;SDS011;23694;43.274;26.924;2023-05-29T03:00:46;29.80;;;22.40;;
37855;SDS011;23694;43.274;26.924;2023-05-29T03:03:13;28.20;;;21.60;;
37855;SDS011;23694;43.274;26.924;2023-05-29T03:05:39;29.13;;;21.83;;
37855;SDS011;23694;43.274;26.924;2023-05-29T03:08:05;38.07;;;30.77;;
37855;SDS011;23694;43.274;26.924;2023-05-29T03:10:31;32.20;;;25.97;;
37855;SDS011;23694;43.274;26.924;2023-05-29T03:12:57;26.67;;;21.30;;
37855;SDS011;23694;43.274;26.924;2023-05-29T03:15:23;24.10;;;20.03;;
37855;SDS011;23694;43.274;26.924;2023-05-29T03:17:49;30.10;;;22.77;;
37855;SDS011;23694;43.274;26.924;2023-05-29T03:20:15;29.60;;;21.73;;
37855;SDS011;23694;43.274;26.924;2023-05-29T03:22:41;57.50;;;42.43;;
37855;SDS011;23694;43.274;26.924;2023-05-29T03:25:08;32.50;;;23.43;;
37855;SDS011;23694;43.274;26.924;2023-05-29T03:27:34;28.80;;;23.20;;
37855;SDS011;23694;43.274;26.924;2023-05-29T03:30:00;28.13;;;20.73;;
37855;SDS011;23694;43.274;26.924;2023-05-29T03:32:26;26.70;;;20.83;;
37855;SDS011;23694;43.274;26.924;2023-05-29T03:34:52;26.17;;;21.33;;
37855;SDS011;23694;43.274;26.924;2023-05-29T03:37:18;26.60;;;21.80;;
37855;SDS011;23694;43.274;26.924;2023-05-29T03:39:44;28.43;;;20.93;;
37855;SDS011;23694;43.274;26.924;2023-05-29T03:42:12;26.83;;;22.20;;
37855;SDS011;23694;43.274;26.924;2023-05-29T03:44:38;28.53;;;23.60;;
37855;SDS011;23694;43.274;26.924;2023-05-29T03:47:05;27.83;;;22.50;;
37855;SDS011;23694;43.274;26.924;2023-05-29T03:49:31;29.93;;;21.77;;
37855;SDS011;23694;43.274;26.924;2023-05-29T03:51:57;28.53;;;21.97;;
37855;SDS011;23694;43.274;26.924;2023-05-29T03:54:23;27.97;;;21.97;;
37855;SDS011;23694;43.274;26.924;2023-05-29T03:56:49;25.17;;;21.10;;
37855;SDS011;23694;43.274;26.924;2023-05-29T03:59:15;25.73;;;21.87;;
37855;SDS011;23694;43.274;26.924;2023-05-29T04:01:41;30.33;;;22.10;;
37855;SDS011;23694;43.274;26.924;2023-05-29T04:04:07;24.80;;;22.03;;
37855;SDS011;23694;43.274;26.924;2023-05-29T04:06:33;29.90;;;22.13;;
37855;SDS011;23694;43.274;26.924;2023-05-29T04:09:04;31.23;;;23.50;;
37855;SDS011;23694;43.274;26.924;2023-05-29T04:11:35;27.27;;;22.07;;
37855;SDS011;23694;43.274;26.924;2023-05-29T04:14:01;28.43;;;23.00;;
37855;SDS011;23694;43.274;26.924;2023-05-29T04:16:28;31.40;;;21.77;;
37855;SDS011;23694;43.274;26.924;2023-05-29T04:18:54;28.20;;;21.33;;
37855;SDS011;23694;43.274;26.924;2023-05-29T04:21:21;24.60;;;21.43;;
37855;SDS011;23694;43.274;26.924;2023-05-29T04:23:47;25.00;;;21.17;;
37855;SDS011;23694;43.274;26.924;2023-05-29T04:26:14;25.40;;;21.93;;
37855;SDS011;23694;43.274;26.924;2023-05-29T04:28:40;25.90;;;20.13;;
37855;SDS011;23694;43.274;26.924;2023-05-29T04:31:08;22.43;;;19.90;;
37855;SDS011;23694;43.274;26.924;2023-05-29T04:33:34;25.83;;;19.80;;
37855;SDS011;23694;43.274;26.924;2023-05-29T04:36:02;23.00;;;19.07;;
37855;SDS011;23694;43.274;26.924;2023-05-29T04:38:29;26.83;;;19.40;;
37855;SDS011;23694;43.274;26.924;2023-05-29T04:40:56;25.90;;;20.10;;
37855;SDS011;23694;43.274;26.924;2023-05-29T04:43:24;27.60;;;19.53;;
37855;SDS011;23694;43.274;26.924;2023-05-29T04:45:52;24.80;;;19.50;;
37855;SDS011;23694;43.274;26.924;2023-05-29T04:48:19;22.30;;;18.97;;
37855;SDS011;23694;43.274;26.924;2023-05-29T04:50:45;24.70;;;19.40;;
37855;SDS011;23694;43.274;26.924;2023-05-29T04:53:11;26.23;;;19.60;;
37855;SDS011;23694;43.274;26.924;2023-05-29T04:55:37;35.73;;;24.73;;
37855;SDS011;23694;43.274;26.924;2023-05-29T04:58:03;22.50;;;19.07;;
37855;SDS011;23694;43.274;26.924;2023-05-29T05:00:29;23.20;;;18.97;;
37855;SDS011;23694;43.274;26.924;2023-05-29T05:02:55;24.60;;;19.67;;
37855;SDS011;23694;43.274;26.924;2023-05-29T05:05:21;24.67;;;20.27;;
37855;SDS011;23694;43.274;26.924;2023-05-29T05:07:47;23.33;;;19.37;;
37855;SDS011;23694;43.274;26.924;2023-05-29T05:10:14;30.67;;;25.07;;
37855;SDS011;23694;43.274;26.924;2023-05-29T05:12:40;24.30;;;19.67;;
37855;SDS011;23694;43.274;26.924;2023-05-29T05:15:06;32.20;;;27.40;;
37855;SDS011;23694;43.274;26.924;2023-05-29T05:17:32;61.27;;;49.17;;
37855;SDS011;23694;43.274;26.924;2023-05-29T05:19:59;32.40;;;25.73;;
37855;SDS011;23694;43.274;26.924;2023-05-29T05:22:25;26.30;;;19.70;;
37855;SDS011;23694;43.274;26.924;2023-05-29T05:24:51;22.10;;;18.07;;
37855;SDS011;23694;43.274;26.924;2023-05-29T05:27:22;20.67;;;17.60;;
37855;SDS011;23694;43.274;26.924;2023-05-29T05:29:48;21.63;;;17.20;;
37855;SDS011;23694;43.274;26.924;2023-05-29T05:32:14;24.30;;;18.57;;
37855;SDS011;23694;43.274;26.924;2023-05-29T05:34:40;23.87;;;18.33;;
37855;SDS011;23694;43.274;26.924;2023-05-29T05:37:06;24.77;;;18.17;;
37855;SDS011;23694;43.274;26.924;2023-05-29T05:39:32;21.97;;;17.50;;
37855;SDS011;23694;43.274;26.924;2023-05-29T05:41:58;24.00;;;17.10;;
37855;SDS011;23694;43.274;26.924;2023-05-29T05:44:25;23.73;;;17.00;;
37855;SDS011;23694;43.274;26.924;2023-05-29T05:46:51;22.70;;;18.20;;
37855;SDS011;23694;43.274;26.924;2023-05-29T05:49:18;25.37;;;18.27;;
37855;SDS011;23694;43.274;26.924;2023-05-29T05:51:44;24.93;;;17.50;;
37855;SDS011;23694;43.274;26.924;2023-05-29T05:54:10;20.13;;;17.10;;
37855;SDS011;23694;43.274;26.924;2023-05-29T05:56:36;23.63;;;17.23;;
37855;SDS011;23694;43.274;26.924;2023-05-29T05:59:02;22.43;;;16.40;;
37855;SDS011;23694;43.274;26.924;2023-05-29T06:01:28;23.47;;;16.60;;
37855;SDS011;23694;43.274;26.924;2023-05-29T06:03:54;21.07;;;16.43;;
37855;SDS011;23694;43.274;26.924;2023-05-29T06:06:20;19.40;;;16.17;;
37855;SDS011;23694;43.274;26.924;2023-05-29T06:08:46;20.90;;;16.60;;
37855;SDS011;23694;43.274;26.924;2023-05-29T06:11:12;21.00;;;14.90;;
37855;SDS011;23694;43.274;26.924;2023-05-29T06:13:39;21.27;;;16.30;;
37855;SDS011;23694;43.274;26.924;2023-05-29T06:16:05;18.13;;;15.20;;
37855;SDS011;23694;43.274;26.924;2023-05-29T06:18:31;19.73;;;15.73;;
37855;SDS011;23694;43.274;26.924;2023-05-29T06:20:57;21.83;;;16.40;;
37855;SDS011;23694;43.274;26.924;2023-05-29T06:23:23;19.80;;;15.03;;
37855;SDS011;23694;43.274;26.924;2023-05-29T06:25:49;22.23;;;15.10;;
37855;SDS011;23694;43.274;26.924;2023-05-29T06:28:15;17.83;;;15.00;;
37855;SDS011;23694;43.274;26.924;2023-05-29T06:30:41;17.20;;;14.30;;
37855;SDS011;23694;43.274;26.924;2023-05-29T06:33:08;17.30;;;14.10;;
37855;SDS011;23694;43.274;26.924;2023-05-29T06:35:34;19.50;;;14.00;;
37855;SDS011;23694;43.274;26.924;2023-05-29T06:38:00;21.63;;;14.47;;
37855;SDS011;23694;43.274;26.924;2023-05-29T06:40:26;19.60;;;14.57;;
37855;SDS011;23694;43.274;26.924;2023-05-29T06:42:52;21.53;;;14.87;;
37855;SDS011;23694;43.274;26.924;2023-05-29T06:45:18;17.97;;;14.30;;
37855;SDS011;23694;43.274;26.924;2023-05-29T06:47:45;21.47;;;14.63;;
37855;SDS011;23694;43.274;26.924;2023-05-29T06:50:11;18.47;;;14.37;;
37855;SDS011;23694;43.274;26.924;2023-05-29T06:52:37;17.53;;;14.20;;
37855;SDS011;23694;43.274;26.924;2023-05-29T06:55:04;19.37;;;14.83;;
37855;SDS011;23694;43.274;26.924;2023-05-29T06:57:30;19.07;;;14.07;;
37855;SDS011;23694;43.274;26.924;2023-05-29T06:59:57;19.13;;;15.27;;
37855;SDS011;23694;43.274;26.924;2023-05-29T07:02:23;22.67;;;14.87;;
37855;SDS011;23694;43.274;26.924;2023-05-29T07:04:49;24.20;;;14.70;;
37855;SDS011;23694;43.274;26.924;2023-05-29T07:07:16;25.27;;;15.23;;
37855;SDS011;23694;43.274;26.924;2023-05-29T07:09:42;21.07;;;14.47;;
37855;SDS011;23694;43.274;26.924;2023-05-29T07:12:08;17.47;;;14.20;;
37855;SDS011;23694;43.274;26.924;2023-05-29T07:14:36;18.13;;;14.20;;
37855;SDS011;23694;43.274;26.924;2023-05-29T07:17:02;21.27;;;15.33;;
37855;SDS011;23694;43.274;26.924;2023-05-29T07:19:28;21.80;;;14.87;;
37855;SDS011;23694;43.274;26.924;2023-05-29T07:21:55;17.03;;;14.00;;
37855;SDS011;23694;43.274;26.924;2023-05-29T07:24:21;18.77;;;14.57;;
37855;SDS011;23694;43.274;26.924;2023-05-29T07:26:47;20.23;;;13.67;;
37855;SDS011;23694;43.274;26.924;2023-05-29T07:29:13;17.57;;;14.00;;
37855;SDS011;23694;43.274;26.924;2023-05-29T07:31:40;18.50;;;13.50;;
37855;SDS011;23694;43.274;26.924;2023-05-29T07:34:06;21.63;;;14.83;;
37855;SDS011;23694;43.274;26.924;2023-05-29T07:36:32;20.50;;;15.10;;
37855;SDS011;23694;43.274;26.924;2023-05-29T07:38:58;22.23;;;15.17;;
37855;SDS011;23694;43.274;26.924;2023-05-29T07:41:24;19.80;;;15.27;;
37855;SDS011;23694;43.274;26.924;2023-05-29T07:43:52;18.90;;;15.57;;
37855;SDS011;23694;43.274;26.924;2023-05-29T07:46:18;20.60;;;15.30;;
37855;SDS011;23694;43.274;26.924;2023-05-29T07:48:45;21.30;;;15.90;;
37855;SDS011;23694;43.274;26.924;2023-05-29T07:51:13;23.80;;;15.87;;
37855;SDS011;23694;43.274;26.924;2023-05-29T07:53:40;20.90;;;17.13;;
37855;SDS011;23694;43.274;26.924;2023-05-29T07:56:15;22.97;;;16.70;;
37855;SDS011;23694;43.274;26.924;2023-05-29T07:58:42;21.00;;;15.63;;
37855;SDS011;23694;43.274;26.924;2023-05-29T08:01:08;21.70;;;16.00;;
37855;SDS011;23694;43.274;26.924;2023-05-29T08:03:35;23.03;;;15.77;;
37855;SDS011;23694;43.274;26.924;2023-05-29T08:06:01;20.60;;;15.93;;
37855;SDS011;23694;43.274;26.924;2023-05-29T08:08:27;23.33;;;16.07;;
37855;SDS011;23694;43.274;26.924;2023-05-29T08:10:53;25.23;;;16.17;;
37855;SDS011;23694;43.274;26.924;2023-05-29T08:13:19;21.93;;;17.40;;
37855;SDS011;23694;43.274;26.924;2023-05-29T08:15:45;24.33;;;19.17;;
37855;SDS011;23694;43.274;26.924;2023-05-29T08:18:12;25.23;;;18.67;;
37855;SDS011;23694;43.274;26.924;2023-05-29T08:20:38;25.50;;;18.47;;
37855;SDS011;23694;43.274;26.924;2023-05-29T08:23:04;25.37;;;18.90;;
37855;SDS011;23694;43.274;26.924;2023-05-29T08:25:30;23.33;;;18.97;;
37855;SDS011;23694;43.274;26.924;2023-05-29T08:27:56;23.97;;;17.83;;
37855;SDS011;23694;43.274;26.924;2023-05-29T08:30:23;26.23;;;18.10;;
37855;SDS011;23694;43.274;26.924;2023-05-29T08:32:49;23.77;;;17.73;;
37855;SDS011;23694;43.274;26.924;2023-05-29T08:35:15;23.73;;;18.50;;
37855;SDS011;23694;43.274;26.924;2023-05-29T08:37:42;23.90;;;18.23;;
37855;SDS011;23694;43.274;26.924;2023-05-29T08:40:08;25.70;;;19.30;;
37855;SDS011;23694;43.274;26.924;2023-05-29T08:42:56;23.77;;;18.77;;
37855;SDS011;23694;43.274;26.924;2023-05-29T08:45:24;26.07;;;21.27;;
37855;SDS011;23694;43.274;26.924;2023-05-29T08:47:53;23.53;;;19.13;;
37855;SDS011;23694;43.274;26.924;2023-05-29T08:50:20;23.47;;;18.97;;
37855;SDS011;23694;43.274;26.924;2023-05-29T08:52:47;23.33;;;18.67;;
37855;SDS011;23694;43.274;26.924;2023-05-29T08:55:13;28.07;;;20.30;;
37855;SDS011;23694;43.274;26.924;2023-05-29T08:57:39;25.67;;;19.73;;
37855;SDS011;23694;43.274;26.924;2023-05-29T09:00:08;33.20;;;27.43;;
37855;SDS011;23694;43.274;26.924;2023-05-29T09:02:41;24.33;;;20.63;;
37855;SDS011;23694;43.274;26.924;2023-05-29T09:05:09;21.38;;;17.35;;
37855;SDS011;23694;43.274;26.924;2023-05-29T09:07:36;20.70;;;17.30;;
37855;SDS011;23694;43.274;26.924;2023-05-29T09:10:05;28.50;;;18.37;;
37855;SDS011;23694;43.274;26.924;2023-05-29T09:12:33;19.80;;;15.73;;
37855;SDS011;23694;43.274;26.924;2023-05-29T09:14:59;19.43;;;15.47;;
37855;SDS011;23694;43.274;26.924;2023-05-29T09:17:30;20.87;;;16.93;;
37855;SDS011;23694;43.274;26.924;2023-05-29T09:22:24;19.40;;;14.57;;
37855;SDS011;23694;43.274;26.924;2023-05-29T09:24:50;19.50;;;14.63;;
37855;SDS011;23694;43.274;26.924;2023-05-29T09:27:16;16.70;;;13.57;;
37855;SDS011;23694;43.274;26.924;2023-05-29T09:29:44;16.37;;;12.63;;
37855;SDS011;23694;43.274;26.924;2023-05-29T09:32:15;16.90;;;13.07;;
37855;SDS011;23694;43.274;26.924;2023-05-29T09:34:42;15.20;;;11.80;;
37855;SDS011;23694;43.274;26.924;2023-05-29T09:37:09;12.43;;;11.03;;
37855;SDS011;23694;43.274;26.924;2023-05-29T09:39:47;11.80;;;10.10;;
37855;SDS011;23694;43.274;26.924;2023-05-29T09:42:17;11.17;;;9.97;;
37855;SDS011;23694;43.274;26.924;2023-05-29T09:44:50;15.60;;;11.40;;
37855;SDS011;23694;43.274;26.924;2023-05-29T09:47:20;11.90;;;10.10;;
37855;SDS011;23694;43.274;26.924;2023-05-29T09:49:46;27.50;;;23.33;;
37855;SDS011;23694;43.274;26.924;2023-05-29T09:52:13;12.27;;;11.03;;
37855;SDS011;23694;43.274;26.924;2023-05-29T09:54:41;14.17;;;10.83;;
37855;SDS011;23694;43.274;26.924;2023-05-29T09:57:14;13.17;;;10.23;;
37855;SDS011;23694;43.274;26.924;2023-05-29T09:59:45;9.35;;;7.72;;
37855;SDS011;23694;43.274;26.924;2023-05-29T10:02:16;9.90;;;5.80;;
37855;SDS011;23694;43.274;26.924;2023-05-29T10:04:43;7.43;;;5.30;;
37855;SDS011;23694;43.274;26.924;2023-05-29T10:07:12;9.43;;;5.50;;
37855;SDS011;23694;43.274;26.924;2023-05-29T10:09:52;7.40;;;5.07;;
37855;SDS011;23694;43.274;26.924;2023-05-29T10:12:24;5.87;;;5.00;;
37855;SDS011;23694;43.274;26.924;2023-05-29T10:14:53;6.10;;;5.20;;
37855;SDS011;23694;43.274;26.924;2023-05-29T10:17:25;8.82;;;5.43;;
37855;SDS011;23694;43.274;26.924;2023-05-29T10:19:54;9.60;;;5.90;;
37855;SDS011;23694;43.274;26.924;2023-05-29T10:22:24;7.43;;;6.30;;
37855;SDS011;23694;43.274;26.924;2023-05-29T10:24:52;9.53;;;6.17;;
37855;SDS011;23694;43.274;26.924;2023-05-29T10:27:21;9.17;;;6.47;;
37855;SDS011;23694;43.274;26.924;2023-05-29T10:37:50;11.18;;;7.50;;
37855;SDS011;23694;43.274;26.924;2023-05-29T10:40:27;9.83;;;7.97;;
37855;SDS011;23694;43.274;26.924;2023-05-29T10:42:53;14.10;;;8.67;;
37855;SDS011;23694;43.274;26.924;2023-05-29T10:47:56;9.57;;;7.87;;
37855;SDS011;23694;43.274;26.924;2023-05-29T10:50:45;11.20;;;7.70;;
37855;SDS011;23694;43.274;26.924;2023-05-29T10:53:46;11.00;;;8.77;;
37855;SDS011;23694;43.274;26.924;2023-05-29T10:56:09;15.67;;;8.97;;
37855;SDS011;23694;43.274;26.924;2023-05-29T10:58:41;10.50;;;8.80;;
37855;SDS011;23694;43.274;26.924;2023-05-29T11:01:07;9.97;;;8.37;;
37855;SDS011;23694;43.274;26.924;2023-05-29T11:03:34;13.50;;;9.43;;
37855;SDS011;23694;43.274;26.924;2023-05-29T11:17:30;12.13;;;10.03;;
37855;SDS011;23694;43.274;26.924;2023-05-29T11:20:03;12.63;;;9.00;;
37855;SDS011;23694;43.274;26.924;2023-05-29T11:22:56;10.38;;;9.30;;
37855;SDS011;23694;43.274;26.924;2023-05-29T11:27:50;13.40;;;9.53;;
37855;SDS011;23694;43.274;26.924;2023-05-29T11:30:19;11.90;;;9.00;;
37855;SDS011;23694;43.274;26.924;2023-05-29T11:32:47;10.13;;;9.13;;
37855;SDS011;23694;43.274;26.924;2023-05-29T11:35:14;11.33;;;9.57;;
37855;SDS011;23694;43.274;26.924;2023-05-29T11:37:43;11.80;;;10.03;;
37855;SDS011;23694;43.274;26.924;2023-05-29T11:40:12;12.20;;;10.13;;
37855;SDS011;23694;43.274;26.924;2023-05-29T11:42:43;10.60;;;9.50;;
37855;SDS011;23694;43.274;26.924;2023-05-29T11:45:13;13.60;;;10.02;;
37855;SDS011;23694;43.274;26.924;2023-05-29T11:47:50;10.63;;;8.82;;
37855;SDS011;23694;43.274;26.924;2023-05-29T11:50:23;10.30;;;8.60;;
37855;SDS011;23694;43.274;26.924;2023-05-29T11:52:55;11.07;;;7.70;;
37855;SDS011;23694;43.274;26.924;2023-05-29T11:55:22;9.63;;;8.40;;
37855;SDS011;23694;43.274;26.924;2023-05-29T11:57:49;8.53;;;7.63;;
37855;SDS011;23694;43.274;26.924;2023-05-29T12:00:17;9.50;;;8.57;;
37855;SDS011;23694;43.274;26.924;2023-05-29T12:02:44;7.80;;;7.10;;
37855;SDS011;23694;43.274;26.924;2023-05-29T12:05:15;7.87;;;5.73;;
37855;SDS011;23694;43.274;26.924;2023-05-29T12:07:47;9.10;;;7.40;;
37855;SDS011;23694;43.274;26.924;2023-05-29T12:10:17;7.97;;;6.87;;
37855;SDS011;23694;43.274;26.924;2023-05-29T12:12:47;8.80;;;6.73;;
37855;SDS011;23694;43.274;26.924;2023-05-29T12:15:18;7.85;;;6.20;;
37855;SDS011;23694;43.274;26.924;2023-05-29T12:17:45;6.37;;;5.23;;
37855;SDS011;23694;43.274;26.924;2023-05-29T12:20:12;6.90;;;5.50;;
37855;SDS011;23694;43.274;26.924;2023-05-29T12:22:40;7.13;;;5.93;;
37855;SDS011;23694;43.274;26.924;2023-05-29T12:25:11;7.97;;;5.97;;
37855;SDS011;23694;43.274;26.924;2023-05-29T12:27:42;8.17;;;6.80;;
37855;SDS011;23694;43.274;26.924;2023-05-29T12:30:13;7.13;;;5.83;;
37855;SDS011;23694;43.274;26.924;2023-05-29T12:32:41;8.02;;;7.22;;
37855;SDS011;23694;43.274;26.924;2023-05-29T12:35:18;8.27;;;6.90;;
37855;SDS011;23694;43.274;26.924;2023-05-29T12:37:46;8.13;;;7.33;;
37855;SDS011;23694;43.274;26.924;2023-05-29T12:40:18;11.17;;;7.83;;
37855;SDS011;23694;43.274;26.924;2023-05-29T12:42:47;8.63;;;7.65;;
37855;SDS011;23694;43.274;26.924;2023-05-29T12:45:14;10.47;;;7.60;;
37855;SDS011;23694;43.274;26.924;2023-05-29T12:47:56;8.57;;;7.67;;
37855;SDS011;23694;43.274;26.924;2023-05-29T12:50:28;8.87;;;7.70;;
37855;SDS011;23694;43.274;26.924;2023-05-29T12:53:05;12.27;;;8.50;;
37855;SDS011;23694;43.274;26.924;2023-05-29T12:55:36;12.10;;;8.27;;
37855;SDS011;23694;43.274;26.924;2023-05-29T12:58:04;10.35;;;9.35;;
37855;SDS011;23694;43.274;26.924;2023-05-29T13:00:31;11.23;;;9.43;;
37855;SDS011;23694;43.274;26.924;2023-05-29T13:02:59;10.60;;;9.50;;
37855;SDS011;23694;43.274;26.924;2023-05-29T13:05:27;11.90;;;9.00;;
37855;SDS011;23694;43.274;26.924;2023-05-29T13:07:53;9.30;;;8.40;;
37855;SDS011;23694;43.274;26.924;2023-05-29T13:10:20;11.13;;;9.23;;
37855;SDS011;23694;43.274;26.924;2023-05-29T13:12:47;11.20;;;10.10;;
37855;SDS011;23694;43.274;26.924;2023-05-29T13:15:20;10.83;;;9.10;;
37855;SDS011;23694;43.274;26.924;2023-05-29T13:17:48;10.77;;;9.77;;
37855;SDS011;23694;43.274;26.924;2023-05-29T13:20:15;10.73;;;9.63;;
37855;SDS011;23694;43.274;26.924;2023-05-29T13:22:42;9.63;;;8.60;;
37855;SDS011;23694;43.274;26.924;2023-05-29T13:25:11;10.00;;;8.77;;
37855;SDS011;23694;43.274;26.924;2023-05-29T13:27:38;10.60;;;9.60;;
37855;SDS011;23694;43.274;26.924;2023-05-29T13:30:10;10.57;;;9.20;;
37855;SDS011;23694;43.274;26.924;2023-05-29T13:32:36;12.20;;;8.80;;
37855;SDS011;23694;43.274;26.924;2023-05-29T13:35:03;10.77;;;9.70;;
37855;SDS011;23694;43.274;26.924;2023-05-29T13:37:31;11.67;;;9.97;;
37855;SDS011;23694;43.274;26.924;2023-05-29T13:39:57;11.03;;;9.27;;
37855;SDS011;23694;43.274;26.924;2023-05-29T13:42:24;11.77;;;9.43;;
37855;SDS011;23694;43.274;26.924;2023-05-29T13:44:50;12.13;;;10.23;;
37855;SDS011;23694;43.274;26.924;2023-05-29T13:47:17;11.23;;;10.13;;
37855;SDS011;23694;43.274;26.924;2023-05-29T13:49:43;12.60;;;10.33;;
37855;SDS011;23694;43.274;26.924;2023-05-29T13:52:10;11.33;;;10.20;;
37855;SDS011;23694;43.274;26.924;2023-05-29T13:54:36;11.07;;;9.93;;
37855;SDS011;23694;43.274;26.924;2023-05-29T13:57:05;12.13;;;10.97;;
37855;SDS011;23694;43.274;26.924;2023-05-29T13:59:32;26.63;;;20.83;;
37855;SDS011;23694;43.274;26.924;2023-05-29T14:02:00;21.80;;;19.07;;
37855;SDS011;23694;43.274;26.924;2023-05-29T14:04:29;15.40;;;13.70;;
37855;SDS011;23694;43.274;26.924;2023-05-29T14:06:55;13.97;;;12.27;;
37855;SDS011;23694;43.274;26.924;2023-05-29T14:09:24;13.37;;;11.83;;
37855;SDS011;23694;43.274;26.924;2023-05-29T14:12:02;13.77;;;11.90;;
37855;SDS011;23694;43.274;26.924;2023-05-29T14:14:28;13.13;;;11.33;;
37855;SDS011;23694;43.274;26.924;2023-05-29T14:16:54;13.67;;;11.80;;
37855;SDS011;23694;43.274;26.924;2023-05-29T14:19:21;15.00;;;12.30;;
37855;SDS011;23694;43.274;26.924;2023-05-29T14:21:48;14.80;;;13.07;;
37855;SDS011;23694;43.274;26.924;2023-05-29T14:24:16;15.00;;;12.33;;
37855;SDS011;23694;43.274;26.924;2023-05-29T14:26:43;15.17;;;12.17;;
37855;SDS011;23694;43.274;26.924;2023-05-29T14:29:12;14.20;;;12.13;;
37855;SDS011;23694;43.274;26.924;2023-05-29T14:31:40;15.90;;;12.73;;
37855;SDS011;23694;43.274;26.924;2023-05-29T14:34:06;15.77;;;12.80;;
37855;SDS011;23694;43.274;26.924;2023-05-29T14:36:32;14.87;;;12.13;;
37855;SDS011;23694;43.274;26.924;2023-05-29T14:38:58;13.07;;;11.50;;
37855;SDS011;23694;43.274;26.924;2023-05-29T14:41:24;17.43;;;11.53;;
37855;SDS011;23694;43.274;26.924;2023-05-29T14:43:51;14.07;;;11.10;;
37855;SDS011;23694;43.274;26.924;2023-05-29T14:46:18;14.10;;;10.70;;
37855;SDS011;23694;43.274;26.924;2023-05-29T14:48:44;14.27;;;12.20;;
37855;SDS011;23694;43.274;26.924;2023-05-29T14:51:12;33.70;;;27.20;;
37855;SDS011;23694;43.274;26.924;2023-05-29T14:53:38;11.77;;;10.53;;
37855;SDS011;23694;43.274;26.924;2023-05-29T14:56:05;15.07;;;11.37;;
37855;SDS011;23694;43.274;26.924;2023-05-29T14:58:31;13.03;;;10.73;;